createdAt,value
2023-07-22T00:00:46.880Z,22.34
2023-07-22T00:02:48.397Z,22.33
2023-07-22T00:04:50.272Z,22.32
2023-07-22T00:06:51.804Z,22.32
2023-07-22T00:08:54.797Z,22.33
2023-07-22T00:10:56.230Z,22.31
2023-07-22T00:12:57.871Z,22.31
2023-07-22T00:14:59.470Z,22.29
2023-07-22T00:17:00.984Z,22.29
2023-07-22T00:19:03.054Z,22.29
2023-07-22T00:21:04.564Z,22.29
2023-07-22T00:23:06.007Z,22.28
2023-07-22T00:25:11.077Z,22.27
2023-07-22T00:27:12.671Z,22.26
2023-07-22T00:29:14.146Z,22.26
2023-07-22T00:31:16.134Z,22.26
2023-07-22T00:33:18.373Z,22.25
2023-07-22T00:35:19.974Z,22.25
2023-07-22T00:37:21.407Z,22.25
2023-07-22T00:39:22.849Z,22.24
2023-07-22T00:41:24.391Z,22.24
2023-07-22T00:43:26.995Z,22.24
2023-07-22T00:45:28.613Z,22.22
2023-07-22T00:47:30.116Z,22.22
2023-07-22T00:49:32.034Z,22.22
2023-07-22T00:51:33.620Z,22.20
2023-07-22T00:53:35.103Z,22.20
2023-07-22T00:55:39.900Z,22.19
2023-07-22T00:57:41.410Z,22.18
2023-07-22T00:59:43.188Z,22.18
2023-07-22T01:01:44.681Z,22.18
2023-07-22T01:03:47.387Z,22.18
2023-07-22T01:05:49.629Z,22.16
2023-07-22T01:07:51.635Z,22.16
2023-07-22T01:09:57.022Z,22.15
2023-07-22T01:11:58.444Z,22.14
2023-07-22T01:14:00.773Z,22.14
2023-07-22T01:16:02.441Z,22.14
2023-07-22T01:18:04.359Z,22.13
2023-07-22T01:20:06.177Z,22.13
2023-07-22T01:22:09.101Z,22.13
2023-07-22T01:24:11.095Z,22.10
2023-07-22T01:26:13.262Z,22.11
2023-07-22T01:28:14.949Z,22.10
2023-07-22T01:30:16.438Z,22.09
2023-07-22T01:32:18.157Z,22.09
2023-07-22T01:34:19.592Z,22.09
2023-07-22T01:36:21.090Z,22.07
2023-07-22T01:38:22.858Z,22.07
2023-07-22T01:40:25.802Z,22.07
2023-07-22T01:42:27.277Z,22.06
2023-07-22T01:44:28.804Z,22.06
2023-07-22T01:46:30.649Z,22.05
2023-07-22T01:48:33.297Z,22.06
2023-07-22T01:50:34.822Z,22.04
2023-07-22T01:52:36.373Z,22.04
2023-07-22T01:54:37.916Z,22.03
2023-07-22T01:56:39.912Z,22.03
2023-07-22T01:58:41.700Z,22.04
2023-07-22T02:04:51.553Z,22.01
2023-07-22T02:06:53.304Z,22.00
2023-07-22T02:08:54.740Z,22.00
2023-07-22T02:10:56.408Z,21.99
2023-07-22T02:17:11.698Z,21.98
2023-07-22T02:19:13.185Z,21.98
2023-07-22T02:21:14.730Z,21.96
2023-07-22T02:23:16.302Z,21.96
2023-07-22T02:29:25.700Z,21.95
2023-07-22T02:31:27.196Z,21.94
2023-07-22T02:33:28.823Z,21.94
2023-07-22T02:39:45.995Z,21.92
2023-07-22T02:41:47.483Z,21.93
2023-07-22T02:43:48.947Z,21.91
2023-07-22T02:45:50.493Z,21.91
2023-07-22T02:47:52.232Z,21.91
2023-07-22T02:49:53.684Z,21.90
2023-07-22T02:51:55.144Z,21.90
2023-07-22T02:53:56.610Z,21.88
2023-07-22T02:55:58.312Z,21.89
2023-07-22T02:57:59.779Z,21.88
2023-07-22T03:06:22.070Z,21.86
2023-07-22T03:08:23.575Z,21.85
2023-07-22T03:10:26.626Z,21.85
2023-07-22T03:12:28.458Z,21.85
2023-07-22T03:16:36.447Z,21.83
2023-07-22T03:18:40.043Z,21.84
2023-07-22T03:20:42.398Z,21.82
2023-07-22T03:22:44.239Z,21.82
2023-07-22T03:24:46.454Z,21.81
2023-07-22T03:26:48.018Z,21.82
2023-07-22T03:28:49.541Z,21.81
2023-07-22T03:30:51.228Z,21.80
2023-07-22T03:32:52.689Z,21.81
2023-07-22T03:34:54.137Z,21.80
2023-07-22T03:36:55.670Z,21.79
2023-07-22T03:38:57.254Z,21.79
2023-07-22T03:40:58.704Z,21.78
2023-07-22T03:43:00.576Z,21.78
2023-07-22T03:45:02.666Z,21.78
2023-07-22T03:47:04.323Z,21.77
2023-07-22T03:49:05.933Z,21.76
2023-07-22T03:51:19.455Z,21.75
2023-07-22T03:53:22.161Z,21.76
2023-07-22T03:55:23.696Z,21.75
2023-07-22T03:57:28.957Z,21.74
2023-07-22T03:59:30.437Z,21.74
2023-07-22T04:01:32.092Z,21.72
2023-07-22T04:03:34.220Z,21.73
2023-07-22T04:05:35.684Z,21.72
2023-07-22T04:07:38.361Z,21.72
2023-07-22T04:09:40.053Z,21.70
2023-07-22T04:11:41.529Z,21.70
2023-07-22T04:13:43.020Z,21.70
2023-07-22T04:15:44.457Z,21.70
2023-07-22T04:17:45.946Z,21.65
2023-07-22T04:19:47.557Z,21.69
2023-07-22T04:21:49.019Z,21.68
2023-07-22T04:23:50.542Z,21.68
2023-07-22T04:25:52.029Z,21.68
2023-07-22T04:27:53.529Z,21.67
2023-07-22T04:29:55.003Z,21.67
2023-07-22T04:32:00.378Z,21.67
2023-07-22T04:34:01.866Z,21.65
2023-07-22T04:36:03.632Z,21.66
2023-07-22T04:38:05.281Z,21.66
2023-07-22T04:40:09.898Z,21.65
2023-07-22T04:42:11.352Z,21.65
2023-07-22T04:44:12.890Z,21.66
2023-07-22T04:46:14.486Z,21.65
2023-07-22T04:48:17.125Z,21.64
2023-07-22T04:50:20.814Z,21.63
2023-07-22T04:52:24.437Z,21.64
2023-07-22T04:54:29.320Z,21.63
2023-07-22T04:56:31.389Z,21.63
2023-07-22T04:58:32.947Z,21.63
2023-07-22T05:00:34.882Z,21.63
2023-07-22T05:02:36.519Z,21.59
2023-07-22T05:04:38.022Z,21.63
2023-07-22T05:06:39.593Z,21.63
2023-07-22T05:08:41.570Z,21.62
2023-07-22T05:10:43.176Z,21.62
2023-07-22T05:12:44.867Z,21.62
2023-07-22T05:14:46.795Z,21.61
2023-07-22T05:16:48.319Z,21.61
2023-07-22T05:18:50.109Z,21.61
2023-07-22T05:20:51.752Z,21.62
2023-07-22T05:22:53.223Z,21.60
2023-07-22T05:24:54.674Z,21.61
2023-07-22T05:27:08.576Z,21.61
2023-07-22T05:29:10.957Z,21.60
2023-07-22T05:31:13.147Z,21.60
2023-07-22T05:33:14.724Z,21.60
2023-07-22T05:35:16.445Z,21.60
2023-07-22T05:37:17.916Z,21.60
2023-07-22T05:39:19.855Z,21.63
2023-07-22T05:41:21.445Z,21.65
2023-07-22T05:43:22.978Z,21.67
2023-07-22T05:45:24.443Z,21.68
2023-07-22T05:47:26.686Z,21.68
2023-07-22T05:49:28.749Z,21.70
2023-07-22T05:51:30.348Z,21.69
2023-07-22T05:53:33.883Z,21.69
2023-07-22T05:55:35.475Z,21.69
2023-07-22T05:57:37.505Z,21.69
2023-07-22T05:59:39.048Z,21.69
2023-07-22T06:01:40.688Z,21.69
2023-07-22T06:03:43.330Z,21.69
2023-07-22T06:05:44.884Z,21.68
2023-07-22T06:07:46.607Z,21.68
2023-07-22T06:09:48.387Z,21.69
2023-07-22T06:11:50.604Z,21.69
2023-07-22T06:13:52.267Z,21.68
2023-07-22T06:15:53.980Z,21.67
2023-07-22T06:17:55.493Z,21.67
2023-07-22T06:19:57.069Z,21.68
2023-07-22T06:21:58.526Z,21.67
2023-07-22T06:24:00.040Z,21.67
2023-07-22T06:26:01.586Z,21.66
2023-07-22T06:28:03.054Z,21.66
2023-07-22T06:30:04.781Z,21.66
2023-07-22T06:32:06.651Z,21.67
2023-07-22T06:34:08.197Z,21.67
2023-07-22T06:36:09.665Z,21.66
2023-07-22T06:38:11.121Z,21.66
2023-07-22T06:40:12.613Z,21.65
2023-07-22T06:42:14.131Z,21.65
2023-07-22T06:44:15.731Z,21.65
2023-07-22T06:46:17.619Z,21.65
2023-07-22T06:48:19.342Z,21.66
2023-07-22T06:50:20.878Z,21.65
2023-07-22T06:52:22.421Z,21.66
2023-07-22T06:54:24.104Z,21.67
2023-07-22T06:56:27.199Z,21.67
2023-07-22T06:58:28.711Z,21.68
2023-07-22T07:00:30.179Z,21.67
2023-07-22T07:02:31.709Z,21.67
2023-07-22T07:04:33.925Z,21.68
2023-07-22T07:06:35.455Z,21.69
2023-07-22T07:08:38.173Z,21.69
2023-07-22T07:10:40.610Z,21.69
2023-07-22T07:12:42.099Z,21.72
2023-07-22T07:14:46.634Z,21.71
2023-07-22T07:16:48.128Z,21.73
2023-07-22T07:18:49.821Z,21.74
2023-07-22T07:20:52.139Z,21.76
2023-07-22T07:22:53.659Z,21.78
2023-07-22T07:24:55.160Z,21.78
2023-07-22T07:26:56.672Z,21.78
2023-07-22T07:28:58.156Z,21.79
2023-07-22T07:30:59.683Z,21.80
2023-07-22T07:33:01.253Z,21.81
2023-07-22T07:35:06.079Z,21.74
2023-07-22T07:37:07.565Z,21.80
2023-07-22T07:39:09.070Z,21.81
2023-07-22T07:41:12.750Z,21.80
2023-07-22T07:43:14.491Z,21.79
2023-07-22T07:45:16.480Z,21.79
2023-07-22T07:47:18.025Z,21.78
2023-07-22T07:49:19.529Z,21.80
2023-07-22T07:51:22.112Z,21.80
2023-07-22T07:53:23.567Z,21.82
2023-07-22T07:55:25.131Z,21.82
2023-07-22T07:57:26.688Z,21.83
2023-07-22T07:59:28.167Z,21.84
2023-07-22T08:01:29.810Z,21.85
2023-07-22T08:03:31.762Z,21.86
2023-07-22T08:05:33.681Z,21.85
2023-07-22T08:07:36.067Z,21.86
2023-07-22T08:09:37.557Z,21.87
2023-07-22T08:11:40.020Z,21.88
2023-07-22T08:13:42.033Z,21.88
2023-07-22T08:15:44.029Z,21.88
2023-07-22T08:17:45.584Z,21.90
2023-07-22T08:19:47.135Z,21.92
2023-07-22T08:21:48.584Z,21.92
2023-07-22T08:23:50.103Z,21.93
2023-07-22T08:25:51.599Z,21.90
2023-07-22T08:27:53.135Z,21.88
2023-07-22T08:29:54.815Z,21.92
2023-07-22T08:31:56.314Z,21.92
2023-07-22T08:33:58.045Z,21.91
2023-07-22T08:35:59.559Z,21.92
2023-07-22T08:38:01.353Z,21.92
2023-07-22T08:40:02.840Z,21.90
2023-07-22T08:42:05.332Z,21.90
2023-07-22T08:44:09.203Z,21.89
2023-07-22T08:46:12.107Z,21.90
2023-07-22T08:48:15.498Z,21.90
2023-07-22T08:50:20.766Z,21.90
2023-07-22T08:52:23.330Z,21.92
2023-07-22T08:54:24.986Z,21.93
2023-07-22T08:56:26.874Z,21.94
2023-07-22T08:58:29.830Z,21.94
2023-07-22T09:00:31.673Z,21.97
2023-07-22T09:02:36.492Z,21.97
2023-07-22T09:04:38.052Z,21.98
2023-07-22T09:06:40.398Z,21.98
2023-07-22T09:08:43.331Z,21.99
2023-07-22T09:10:45.779Z,22.01
2023-07-22T09:12:48.124Z,22.01
2023-07-22T09:14:50.905Z,22.04
2023-07-22T09:16:52.359Z,22.05
2023-07-22T09:18:56.073Z,22.26
2023-07-22T09:20:57.563Z,22.41
2023-07-22T09:23:12.525Z,22.49
2023-07-22T09:25:24.914Z,22.55
2023-07-22T09:27:37.490Z,22.60
2023-07-22T09:29:41.279Z,22.57
2023-07-22T09:32:01.083Z,22.63
2023-07-22T09:34:11.077Z,22.68
2023-07-22T09:36:13.185Z,22.65
2023-07-22T09:38:18.214Z,22.65
2023-07-22T09:40:22.773Z,22.70
2023-07-22T09:42:27.258Z,22.74
2023-07-22T09:44:33.598Z,22.80
2023-07-22T09:46:36.238Z,22.83
2023-07-22T09:48:42.565Z,22.84
2023-07-22T09:50:44.489Z,22.83
2023-07-22T09:52:47.620Z,22.84
2023-07-22T09:54:50.403Z,22.85
2023-07-22T09:56:52.173Z,22.85
2023-07-22T09:58:53.819Z,22.84
2023-07-22T10:00:55.442Z,22.81
2023-07-22T10:02:57.702Z,22.84
2023-07-22T10:05:00.829Z,22.81
2023-07-22T10:07:06.827Z,22.81
2023-07-22T10:09:09.894Z,22.80
2023-07-22T10:11:12.850Z,22.79
2023-07-22T10:13:14.579Z,22.78
2023-07-22T10:15:16.813Z,22.75
2023-07-22T10:17:18.503Z,22.74
2023-07-22T10:19:20.899Z,22.72
2023-07-22T10:21:22.677Z,22.70
2023-07-22T10:23:26.156Z,22.68
2023-07-22T10:25:27.712Z,22.68
2023-07-22T10:27:29.469Z,22.69
2023-07-22T10:29:32.180Z,22.72
2023-07-22T10:31:33.779Z,22.74
2023-07-22T10:33:35.496Z,22.76
2023-07-22T10:35:45.472Z,22.80
2023-07-22T10:37:47.029Z,22.79
2023-07-22T10:39:48.711Z,22.79
2023-07-22T10:41:50.219Z,22.79
2023-07-22T10:43:58.809Z,22.76
2023-07-22T10:46:05.737Z,22.77
2023-07-22T10:48:08.999Z,22.79
2023-07-22T10:50:11.170Z,22.84
2023-07-22T10:52:14.486Z,22.85
2023-07-22T10:54:17.082Z,22.84
2023-07-22T10:56:22.926Z,22.84
2023-07-22T10:58:24.911Z,22.81
2023-07-22T11:00:30.378Z,22.83
2023-07-22T11:02:32.046Z,22.90
2023-07-22T11:06:46.978Z,23.04
2023-07-22T11:08:48.520Z,23.09
2023-07-22T11:10:55.162Z,23.11
2023-07-22T11:12:56.732Z,23.19
2023-07-22T11:19:19.654Z,23.41
2023-07-22T11:21:21.139Z,23.53
2023-07-22T11:23:22.586Z,23.60
2023-07-22T11:25:24.105Z,23.66
2023-07-22T11:27:25.742Z,23.72
2023-07-22T11:29:27.268Z,23.79
2023-07-22T11:31:32.524Z,23.79
2023-07-22T11:33:45.518Z,23.79
2023-07-22T11:35:47.194Z,23.78
2023-07-22T11:37:48.687Z,23.78
2023-07-22T11:39:50.218Z,23.81
2023-07-22T11:41:52.095Z,23.87
2023-07-22T11:43:53.645Z,23.90
2023-07-22T11:45:55.423Z,23.75
2023-07-22T11:47:57.180Z,23.84
2023-07-22T11:49:59.173Z,23.90
2023-07-22T11:52:01.733Z,24.01
2023-07-22T11:54:03.201Z,24.08
2023-07-22T11:56:05.041Z,24.07
2023-07-22T11:58:08.246Z,24.04
2023-07-22T12:06:42.971Z,23.95
2023-07-22T12:08:46.293Z,23.91
2023-07-22T12:10:56.837Z,23.89
2023-07-22T12:13:01.442Z,23.83
2023-07-22T12:15:06.517Z,23.80
2023-07-22T12:17:10.081Z,23.77
2023-07-22T12:19:11.593Z,23.81
2023-07-22T12:21:14.039Z,23.90
2023-07-22T12:23:16.365Z,23.99
2023-07-22T12:25:17.852Z,24.04
2023-07-22T12:27:19.604Z,24.00
2023-07-22T12:29:21.925Z,24.06
2023-07-22T12:31:23.675Z,24.15
2023-07-22T12:33:26.031Z,24.14
2023-07-22T12:35:27.751Z,24.05
2023-07-22T12:37:29.456Z,24.11
2023-07-22T12:39:31.212Z,24.10
2023-07-22T12:41:32.698Z,24.19
2023-07-22T12:43:34.292Z,24.22
2023-07-22T12:45:35.901Z,24.31
2023-07-22T12:47:38.234Z,24.38
2023-07-22T12:49:40.083Z,24.36
2023-07-22T12:51:41.609Z,24.38
2023-07-22T12:53:43.299Z,24.40
2023-07-22T12:55:45.228Z,24.43
2023-07-22T12:57:47.056Z,24.33
2023-07-22T12:59:48.998Z,24.33
2023-07-22T13:01:50.548Z,24.37
2023-07-22T13:03:52.026Z,24.39
2023-07-22T13:05:53.580Z,24.41
2023-07-22T13:07:59.286Z,24.52
2023-07-22T13:10:03.314Z,24.52
2023-07-22T13:12:05.119Z,24.56
2023-07-22T13:14:06.566Z,24.61
2023-07-22T13:16:08.087Z,24.62
2023-07-22T13:18:09.748Z,24.62
2023-07-22T13:20:12.797Z,24.66
2023-07-22T13:22:14.413Z,24.62
2023-07-22T13:24:16.686Z,24.58
2023-07-22T13:26:18.199Z,24.53
2023-07-22T13:28:19.811Z,24.48
2023-07-22T13:30:21.406Z,24.45
2023-07-22T13:32:22.889Z,24.39
2023-07-22T13:34:24.550Z,24.37
2023-07-22T13:36:25.992Z,24.37
2023-07-22T13:38:27.897Z,24.31
2023-07-22T13:40:29.691Z,24.29
2023-07-22T13:42:31.205Z,24.28
2023-07-22T13:44:32.699Z,24.28
2023-07-22T13:46:36.460Z,24.26
2023-07-22T13:48:38.250Z,24.24
2023-07-22T13:50:40.364Z,24.23
2023-07-22T13:52:44.823Z,24.20
2023-07-22T13:54:46.977Z,24.18
2023-07-22T13:56:48.630Z,24.14
2023-07-22T13:58:50.161Z,24.07
2023-07-22T14:00:51.683Z,24.05
2023-07-22T14:02:53.345Z,24.04
2023-07-22T14:04:54.866Z,23.97
2023-07-22T14:06:58.094Z,23.98
2023-07-22T14:08:59.999Z,23.93
2023-07-22T14:11:01.500Z,23.97
2023-07-22T14:13:03.184Z,23.97
2023-07-22T14:15:05.562Z,23.98
2023-07-22T14:17:07.297Z,24.04
2023-07-22T14:19:08.831Z,24.07
2023-07-22T14:21:11.994Z,24.09
2023-07-22T14:23:13.714Z,24.11
2023-07-22T14:25:15.184Z,24.10
2023-07-22T14:27:17.002Z,24.13
2023-07-22T14:29:18.604Z,24.15
2023-07-22T14:31:20.093Z,24.15
2023-07-22T14:33:21.672Z,24.09
2023-07-22T14:35:23.231Z,24.11
2023-07-22T14:37:24.792Z,24.12
2023-07-22T14:39:26.400Z,24.14
2023-07-22T14:41:28.178Z,24.11
2023-07-22T14:43:29.938Z,24.14
2023-07-22T14:45:31.386Z,24.16
2023-07-22T14:47:32.975Z,24.18
2023-07-22T14:49:35.030Z,24.22
2023-07-22T14:51:39.224Z,24.24
2023-07-22T14:53:40.902Z,24.23
2023-07-22T14:55:42.376Z,24.26
2023-07-22T14:57:43.915Z,24.18
2023-07-22T14:59:45.520Z,24.19
2023-07-22T15:01:49.591Z,24.20
2023-07-22T15:03:51.243Z,24.22
2023-07-22T15:05:52.853Z,24.24
2023-07-22T15:07:54.439Z,24.22
2023-07-22T15:09:58.285Z,24.19
2023-07-22T15:12:00.227Z,24.18
2023-07-22T15:14:01.715Z,24.19
2023-07-22T15:16:03.798Z,24.19
2023-07-22T15:18:05.401Z,24.18
2023-07-22T15:20:07.244Z,24.17
2023-07-22T15:22:08.850Z,24.17
2023-07-22T15:24:10.440Z,24.16
2023-07-22T15:26:12.031Z,24.16
2023-07-22T15:28:13.637Z,24.18
2023-07-22T15:30:15.203Z,24.19
2023-07-22T15:32:16.972Z,24.18
2023-07-22T15:34:18.424Z,24.14
2023-07-22T15:36:19.870Z,24.14
2023-07-22T15:38:21.625Z,24.10
2023-07-22T15:40:23.062Z,24.14
2023-07-22T15:42:24.567Z,24.16
2023-07-22T15:44:29.051Z,24.14
2023-07-22T15:46:30.807Z,24.17
2023-07-22T15:48:32.436Z,24.16
2023-07-22T15:50:34.191Z,24.15
2023-07-22T15:52:37.660Z,24.13
2023-07-22T15:54:40.131Z,24.12
2023-07-22T15:56:41.743Z,24.15
2023-07-22T15:58:43.305Z,24.16
2023-07-22T16:00:44.886Z,24.19
2023-07-22T16:02:46.489Z,24.22
2023-07-22T16:04:48.500Z,24.23
2023-07-22T16:06:50.075Z,24.22
2023-07-22T16:08:51.592Z,24.26
2023-07-22T16:10:53.199Z,24.27
2023-07-22T16:12:54.767Z,24.29
2023-07-22T16:14:56.613Z,24.30
2023-07-22T16:16:58.312Z,24.29
2023-07-22T16:18:59.798Z,24.29
2023-07-22T16:21:01.306Z,24.24
2023-07-22T16:23:02.764Z,24.21
2023-07-22T16:25:04.460Z,24.26
2023-07-22T16:27:06.194Z,24.29
2023-07-22T16:29:08.090Z,24.29
2023-07-22T16:31:09.564Z,24.30
2023-07-22T16:33:11.480Z,24.31
2023-07-22T16:35:14.808Z,24.30
2023-07-22T16:37:16.396Z,24.27
2023-07-22T16:39:18.309Z,24.29
2023-07-22T16:41:19.914Z,24.28
2023-07-22T16:43:21.426Z,24.27
2023-07-22T16:45:23.645Z,24.25
2023-07-22T16:47:25.235Z,24.24
2023-07-22T16:49:30.107Z,24.26
2023-07-22T16:51:31.540Z,24.26
2023-07-22T16:53:33.132Z,24.26
2023-07-22T16:55:34.590Z,24.24
2023-07-22T16:57:36.936Z,24.26
2023-07-22T16:59:38.457Z,24.25
2023-07-22T17:01:40.117Z,24.25
2023-07-22T17:03:41.704Z,24.24
2023-07-22T17:05:43.397Z,24.23
2023-07-22T17:07:47.273Z,24.23
2023-07-22T17:09:48.922Z,24.22
2023-07-22T17:11:50.548Z,24.22
2023-07-22T17:13:52.362Z,24.21
2023-07-22T17:15:54.391Z,24.20
2023-07-22T17:17:55.868Z,24.21
2023-07-22T17:19:57.554Z,24.20
2023-07-22T17:21:59.033Z,24.20
2023-07-22T17:24:00.623Z,24.19
2023-07-22T17:26:02.064Z,24.18
2023-07-22T17:28:03.538Z,24.18
2023-07-22T17:30:05.330Z,24.18
2023-07-22T17:32:07.250Z,24.16
2023-07-22T17:34:09.064Z,24.15
2023-07-22T17:36:10.591Z,24.13
2023-07-22T17:38:14.437Z,24.13
2023-07-22T17:40:16.218Z,24.14
2023-07-22T17:42:17.992Z,24.16
2023-07-22T17:44:19.413Z,24.14
2023-07-22T17:46:20.913Z,24.14
2023-07-22T17:48:22.504Z,24.13
2023-07-22T17:50:24.022Z,24.13
2023-07-22T17:52:25.625Z,24.07
2023-07-22T17:54:27.263Z,24.14
2023-07-22T17:56:28.772Z,24.12
2023-07-22T17:58:30.254Z,24.11
2023-07-22T18:00:32.184Z,24.09
2023-07-22T18:02:34.154Z,24.06
2023-07-22T18:04:36.080Z,24.06
2023-07-22T18:06:37.583Z,24.06
2023-07-22T18:08:39.138Z,24.07
2023-07-22T18:10:40.588Z,24.06
2023-07-22T18:12:42.203Z,24.06
2023-07-22T18:14:43.711Z,24.06
2023-07-22T18:16:45.452Z,24.05
2023-07-22T18:18:46.991Z,24.06
2023-07-22T18:20:48.495Z,24.14
2023-07-22T18:22:50.270Z,24.16
2023-07-22T18:24:51.766Z,24.11
2023-07-22T18:26:53.420Z,24.08
2023-07-22T18:28:54.940Z,24.07
2023-07-22T18:30:56.420Z,24.06
2023-07-22T18:32:57.981Z,24.04
2023-07-22T18:34:59.733Z,24.03
2023-07-22T18:37:01.262Z,24.01
2023-07-22T18:39:02.861Z,24.00
2023-07-22T18:41:04.505Z,23.99
2023-07-22T18:43:06.113Z,23.96
2023-07-22T18:45:08.014Z,23.93
2023-07-22T18:47:09.519Z,23.93
2023-07-22T18:49:11.036Z,23.91
2023-07-22T18:51:13.346Z,23.90
2023-07-22T18:53:14.819Z,23.89
2023-07-22T18:55:16.317Z,23.88
2023-07-22T18:57:17.825Z,23.80
2023-07-22T18:59:19.267Z,23.84
2023-07-22T19:01:20.738Z,23.82
2023-07-22T19:03:24.151Z,23.80
2023-07-22T19:05:25.698Z,23.79
2023-07-22T19:07:27.411Z,23.77
2023-07-22T19:09:31.502Z,23.75
2023-07-22T19:11:33.243Z,23.74
2023-07-22T19:13:34.806Z,23.73
2023-07-22T19:15:36.260Z,23.73
2023-07-22T19:17:37.880Z,23.71
2023-07-22T19:19:42.657Z,23.70
2023-07-22T19:21:44.425Z,23.69
2023-07-22T19:23:45.929Z,23.67
2023-07-22T19:25:47.397Z,23.66
2023-07-22T19:27:49.132Z,23.65
2023-07-22T19:29:50.565Z,23.64
2023-07-22T19:31:52.335Z,23.62
2023-07-22T19:33:53.824Z,23.61
2023-07-22T19:36:02.921Z,23.60
2023-07-22T19:38:04.408Z,23.59
2023-07-22T19:40:06.279Z,23.58
2023-07-22T19:42:07.795Z,23.56
2023-07-22T19:44:09.238Z,23.55
2023-07-22T19:46:15.413Z,23.53
2023-07-22T19:48:17.266Z,23.53
2023-07-22T19:50:18.853Z,23.52
2023-07-22T19:52:20.374Z,23.50
2023-07-22T19:54:21.868Z,23.49
2023-07-22T19:56:23.283Z,23.49
2023-07-22T19:58:25.859Z,23.48
2023-07-22T20:00:27.331Z,23.47
2023-07-22T20:02:28.886Z,23.45
2023-07-22T20:04:30.474Z,23.45
2023-07-22T20:06:31.944Z,23.44
2023-07-22T20:08:33.437Z,23.44
2023-07-22T20:10:35.139Z,23.41
2023-07-22T20:12:36.743Z,23.41
2023-07-22T20:14:38.241Z,23.40
2023-07-22T20:16:39.739Z,23.40
2023-07-22T20:18:43.246Z,23.39
2023-07-22T20:20:44.747Z,23.37
2023-07-22T20:22:46.333Z,23.37
2023-07-22T20:24:47.910Z,23.36
2023-07-22T20:26:49.490Z,23.35
2023-07-22T20:28:50.931Z,23.35
2023-07-22T20:30:52.426Z,23.34
2023-07-22T20:32:54.331Z,23.33
2023-07-22T20:34:56.684Z,23.32
2023-07-22T20:36:58.120Z,23.33
2023-07-22T20:38:59.930Z,23.32
2023-07-22T20:41:05.811Z,23.31
2023-07-22T20:43:07.430Z,23.30
2023-07-22T20:45:09.318Z,23.28
2023-07-22T20:47:10.798Z,23.28
2023-07-22T20:49:12.441Z,23.27
2023-07-22T20:51:17.957Z,23.26
2023-07-22T20:53:19.568Z,23.26
2023-07-22T20:55:21.057Z,23.26
2023-07-22T20:57:22.571Z,23.26
2023-07-22T20:59:24.048Z,23.24
2023-07-22T21:01:25.971Z,23.24
2023-07-22T21:03:27.965Z,23.23
2023-07-22T21:05:29.762Z,23.22
2023-07-22T21:07:31.261Z,23.22
2023-07-22T21:09:33.210Z,23.20
2023-07-22T21:11:34.720Z,23.20
2023-07-22T21:13:36.957Z,23.19
2023-07-22T21:15:38.553Z,23.13
2023-07-22T21:17:40.093Z,23.19
2023-07-22T21:19:41.564Z,23.18
2023-07-22T21:21:43.098Z,23.16
2023-07-22T21:23:44.584Z,23.16
2023-07-22T21:25:46.221Z,23.13
2023-07-22T21:27:48.774Z,23.13
2023-07-22T21:29:50.627Z,23.14
2023-07-22T21:31:52.137Z,23.13
2023-07-22T21:34:12.471Z,23.13
2023-07-22T21:36:14.266Z,23.11
2023-07-22T21:38:15.818Z,23.11
2023-07-22T21:40:17.776Z,23.09
2023-07-22T21:42:19.281Z,23.10
2023-07-22T21:44:20.965Z,23.08
2023-07-22T21:46:22.417Z,23.09
2023-07-22T21:48:24.041Z,23.09
2023-07-22T21:50:25.524Z,23.07
2023-07-22T21:52:27.218Z,23.07
2023-07-22T21:54:28.688Z,23.07
2023-07-22T21:56:30.199Z,23.05
2023-07-22T21:58:31.679Z,23.05
2023-07-22T22:00:33.340Z,23.04
2023-07-22T22:02:34.968Z,23.03
2023-07-22T22:04:36.440Z,23.04
2023-07-22T22:06:42.351Z,23.03
2023-07-22T22:08:43.807Z,23.03
2023-07-22T22:10:47.540Z,23.02
2023-07-22T22:12:49.024Z,23.01
2023-07-22T22:14:55.184Z,23.01
2023-07-22T22:16:56.784Z,23.01
2023-07-22T22:18:58.427Z,23.00
2023-07-22T22:21:00.748Z,23.00
2023-07-22T22:23:04.156Z,22.99
2023-07-22T22:25:05.831Z,22.99
2023-07-22T22:27:07.460Z,22.98
2023-07-22T22:29:09.020Z,22.97
2023-07-22T22:31:10.686Z,22.97
2023-07-22T22:33:12.242Z,22.96
2023-07-22T22:35:13.733Z,22.96
2023-07-22T22:37:15.351Z,22.95
2023-07-22T22:39:17.009Z,22.94
2023-07-22T22:41:18.526Z,22.94
2023-07-22T22:43:20.088Z,22.93
2023-07-22T22:45:21.569Z,22.93
2023-07-22T22:47:23.186Z,22.93
2023-07-22T22:49:24.708Z,22.92
2023-07-22T22:51:26.515Z,22.91
2023-07-22T22:53:28.219Z,22.90
2023-07-22T22:55:29.688Z,22.90
2023-07-22T22:57:31.182Z,22.89
2023-07-22T22:59:32.693Z,22.89
2023-07-22T23:01:34.227Z,22.88
2023-07-22T23:03:35.963Z,22.87
2023-07-22T23:05:37.704Z,22.88
2023-07-22T23:07:39.840Z,22.87
2023-07-22T23:11:47.703Z,22.86
2023-07-22T23:13:49.667Z,22.86
2023-07-22T23:15:51.320Z,22.85
2023-07-22T23:17:52.889Z,22.84
2023-07-22T23:22:02.519Z,22.83
2023-07-22T23:24:04.331Z,22.81
2023-07-22T23:26:06.214Z,22.81
2023-07-22T23:28:07.701Z,22.81
2023-07-22T23:30:09.454Z,22.80
2023-07-22T23:34:17.325Z,22.80
2023-07-22T23:36:18.768Z,22.79
2023-07-22T23:38:20.432Z,22.78
2023-07-22T23:40:21.912Z,22.78
2023-07-22T23:42:23.476Z,22.76
2023-07-22T23:46:31.741Z,22.75
2023-07-22T23:48:33.332Z,22.75
2023-07-22T23:50:35.540Z,22.75
2023-07-22T23:52:37.252Z,22.73
2023-07-22T23:54:38.732Z,22.73
2023-07-22T23:56:40.291Z,22.72
2023-07-22T23:58:42.379Z,22.73
